Time;durP1;ratioP1;P1;durP2;ratioP2;P2;SDS_P1;SDS_P2;PMS_P1;PMS_P2;Temp;Humidity;BMP_temperature;BMP_pressure;BME280_temperature;BME280_humidity;BME280_pressure;Samples;Min_cycle;Max_cycle;Signal;HPM_P1;HPM_P2
2023/11/15 00:01:45;;;;;;;;;;;;;;;;;;5027435;28;20000;-55
2023/11/15 00:04:13;;;;;;;;;;;;;;;;;;5029176;28;19921;-56
2023/11/15 00:06:40;;;;;;;;;;;;;;;;;;5028734;28;19993;-56
2023/11/15 00:09:06;;;;;;;;;;;;;;;;;;5029920;28;19925;-56
2023/11/15 00:11:33;;;;;;;;;;;;;;;;;;5029293;28;19925;-55
2023/11/15 00:14:00;;;;;;;;;;;;;;;;;;5029533;28;19952;-54
2023/11/15 00:16:26;;;;;;;;;;;;;;;;;;5029634;28;19972;-56
2023/11/15 00:18:53;;;;;;;;;;;;;;;;;;5029878;28;19971;-57
2023/11/15 00:21:21;;;;;;;;;;;;;;;;;;5029655;28;20368;-53
2023/11/15 00:23:48;;;;;;;;;;;;;;;;;;5029715;28;20365;-55
2023/11/15 00:26:14;;;;;;;;;;;;;;;;;;5029266;28;20056;-55
2023/11/15 00:28:40;;;;;;;;;;;;;;;;;;5029391;28;19921;-57
2023/11/15 00:31:07;;;;;;;;;;;;;;;;;;5029118;28;19925;-57
2023/11/15 00:33:33;;;;;;;;;;;;;;;;;;5024394;28;19921;-55
2023/11/15 00:36:00;;;;;;;;;;;;;;;;;;5024418;28;19925;-55
2023/11/15 00:38:29;;;;;;;;;;;;;;;;;;5024071;28;19931;-52
2023/11/15 00:40:55;;;;;;;;;;;;;;;;;;5026011;28;19921;-55
2023/11/15 00:43:22;;;;;;;;;;;;;;;;;;5024228;28;20289;-55
2023/11/15 00:45:50;;;;;;;;;;;;;;;;;;5030265;28;19928;-55
2023/11/15 00:48:17;;;;;;;;;;;;;;;;;;5033302;28;20176;-55
2023/11/15 00:50:43;;;;;;;;;;;;;;;;;;5034634;28;19931;-56
2023/11/15 00:53:10;;;;;;;;;;;;;;;;;;5035436;28;19964;-54
2023/11/15 00:55:37;;;;;;;;;;;;;;;;;;5034952;28;19921;-56
2023/11/15 00:58:08;;;;;;;;;;;;;;;;;;5034869;28;19921;-55
2023/11/15 01:00:39;;;;;;;;;;;;;;;;;;5034579;28;19968;-55
2023/11/15 01:03:06;;;;;;;;;;;;;;;;;;5034600;28;19921;-54
2023/11/15 01:05:32;;;;;;;;;;;;;;;;;;5034457;28;19924;-55
2023/11/15 01:07:59;;;;;;;;;;;;;;;;;;5034459;28;19927;-56
2023/11/15 01:10:25;;;;;;;;;;;;;;;;;;5033743;28;19932;-57
2023/11/15 01:12:54;;;;;;;;;;;;;;;;;;5034069;28;19959;-53
2023/11/15 01:15:21;;;;;;;;;;;;;;;;;;5034018;28;19928;-54
2023/11/15 01:17:48;;;;;;;;;;;;;;;;;;5033402;28;19972;-54
2023/11/15 01:20:15;;;;;;;;;;;;;;;;;;5034050;28;19936;-54
2023/11/15 01:22:41;;;;;;;;;;;;;;;;;;5034245;28;20384;-54
2023/11/15 01:25:08;;;;;;;;;;;;;;;;;;5033904;28;20015;-56
2023/11/15 01:27:35;;;;;;;;;;;;;;;;;;5033514;28;19929;-55
2023/11/15 01:30:03;;;;;;;;;;;;;;;;;;5033581;28;19940;-54
2023/11/15 01:32:30;;;;;;;;;;;;;;;;;;5033568;28;19925;-56
2023/11/15 01:34:57;;;;;;;;;;;;;;;;;;5033390;28;19921;-53
2023/11/15 01:37:23;;;;;;;;;;;;;;;;;;5033402;28;20003;-53
2023/11/15 01:39:50;;;;;;;;;;;;;;;;;;5033433;28;19990;-54
2023/11/15 01:42:17;;;;;;;;;;;;;;;;;;5033686;28;20400;-54
2023/11/15 01:44:44;;;;;;;;;;;;;;;;;;5033458;28;19936;-56
2023/11/15 01:47:14;;;;;;;;;;;;;;;;;;5032752;28;19925;-56
2023/11/15 01:49:41;;;;;;;;;;;;;;;;;;5033648;28;20012;-56
2023/11/15 01:52:09;;;;;;;;;;;;;;;;;;5031160;28;19932;-51
2023/11/15 01:54:35;;;;;;;;;;;;;;;;;;5033224;28;19921;-53
2023/11/15 01:57:02;;;;;;;;;;;;;;;;;;5033174;28;19961;-54
2023/11/15 01:59:29;;;;;;;;;;;;;;;;;;5033347;28;19924;-56
2023/11/15 02:01:55;;;;;;;;;;;;;;;;;;5033877;28;19925;-54
2023/11/15 02:04:23;;;;;;;;;;;;;;;;;;5032589;28;19921;-56
2023/11/15 02:06:49;;;;;;;;;;;;;;;;;;5033204;28;19921;-53
2023/11/15 02:09:16;;;;;;;;;;;;;;;;;;5033132;28;20403;-55
2023/11/15 02:11:42;;;;;;;;;;;;;;;;;;5033001;28;20000;-52
2023/11/15 02:14:09;;;;;;;;;;;;;;;;;;5027042;28;19921;-53
2023/11/15 02:16:36;;;;;;;;;;;;;;;;;;5032015;28;19975;-54
2023/11/15 02:19:02;;;;;;;;;;;;;;;;;;5032321;28;19975;-54
2023/11/15 02:21:30;;;;;;;;;;;;;;;;;;5032606;28;19932;-54
2023/11/15 02:23:58;;;;;;;;;;;;;;;;;;5028311;28;20016;-51
2023/11/15 02:26:25;;;;;;;;;;;;;;;;;;5027150;28;20031;-56
2023/11/15 02:28:51;;;;;;;;;;;;;;;;;;5023130;28;19927;-55
2023/11/15 02:31:17;;;;;;;;;;;;;;;;;;5030888;28;19920;-51
2023/11/15 02:33:44;;;;;;;;;;;;;;;;;;5032233;28;20684;-53
2023/11/15 02:36:11;;;;;;;;;;;;;;;;;;5032103;28;19921;-56
2023/11/15 02:38:38;;;;;;;;;;;;;;;;;;5032138;28;20396;-55
2023/11/15 02:41:06;;;;;;;;;;;;;;;;;;5032201;28;19921;-55
2023/11/15 02:43:33;;;;;;;;;;;;;;;;;;5032361;28;19921;-55
2023/11/15 02:45:59;;;;;;;;;;;;;;;;;;5032240;28;19932;-56
2023/11/15 02:48:26;;;;;;;;;;;;;;;;;;5032648;28;19927;-55
2023/11/15 02:50:53;;;;;;;;;;;;;;;;;;5032237;28;19943;-56
2023/11/15 02:53:19;;;;;;;;;;;;;;;;;;5032245;28;20407;-56
2023/11/15 02:55:46;;;;;;;;;;;;;;;;;;5032065;28;19921;-55
2023/11/15 02:58:14;;;;;;;;;;;;;;;;;;5032042;28;19947;-54
2023/11/15 03:00:41;;;;;;;;;;;;;;;;;;5032045;28;19921;-55
2023/11/15 03:03:07;;;;;;;;;;;;;;;;;;5032199;28;20328;-56
2023/11/15 03:05:34;;;;;;;;;;;;;;;;;;5031597;28;19921;-53
2023/11/15 03:08:00;;;;;;;;;;;;;;;;;;5031811;28;19921;-53
2023/11/15 03:10:27;;;;;;;;;;;;;;;;;;5031753;28;19921;-53
2023/11/15 03:12:53;;;;;;;;;;;;;;;;;;5031902;28;19997;-53
2023/11/15 03:15:21;;;;;;;;;;;;;;;;;;5031594;28;19999;-52
2023/11/15 03:17:47;;;;;;;;;;;;;;;;;;5031629;28;19927;-56
2023/11/15 03:20:14;;;;;;;;;;;;;;;;;;5031949;28;19921;-56
2023/11/15 03:22:40;;;;;;;;;;;;;;;;;;5023716;28;19928;-56
2023/11/15 03:25:07;;;;;;;;;;;;;;;;;;5031789;28;19921;-56
2023/11/15 03:27:34;;;;;;;;;;;;;;;;;;5030867;28;19921;-52
2023/11/15 03:30:00;;;;;;;;;;;;;;;;;;5031707;28;19921;-55
2023/11/15 03:32:29;;;;;;;;;;;;;;;;;;5030910;28;20380;-55
2023/11/15 03:34:55;;;;;;;;;;;;;;;;;;5031523;28;19921;-55
2023/11/15 03:37:21;;;;;;;;;;;;;;;;;;5030783;28;19936;-56
2023/11/15 03:39:48;;;;;;;;;;;;;;;;;;5031586;28;20414;-56
2023/11/15 03:42:16;;;;;;;;;;;;;;;;;;5031657;28;20345;-54
2023/11/15 03:44:42;;;;;;;;;;;;;;;;;;5027048;28;20299;-55
2023/11/15 03:47:08;;;;;;;;;;;;;;;;;;5031159;28;19921;-53
2023/11/15 03:49:36;;;;;;;;;;;;;;;;;;5030936;28;19972;-55
2023/11/15 03:52:03;;;;;;;;;;;;;;;;;;5031741;28;19921;-55
2023/11/15 03:54:30;;;;;;;;;;;;;;;;;;5031326;28;19921;-53
2023/11/15 03:56:57;;;;;;;;;;;;;;;;;;5031013;28;20296;-55
2023/11/15 03:59:23;;;;;;;;;;;;;;;;;;5031233;28;19927;-55
2023/11/15 04:01:50;;;;;;;;;;;;;;;;;;5031422;28;19925;-56
2023/11/15 04:04:16;;;;;;;;;;;;;;;;;;5031737;28;19928;-56
2023/11/15 04:06:44;;;;;;;;;;;;;;;;;;5031723;28;20380;-55
2023/11/15 04:09:11;;;;;;;;;;;;;;;;;;5031919;28;20303;-55
2023/11/15 04:11:39;;;;;;;;;;;;;;;;;;5035130;28;19920;-52
2023/11/15 04:14:05;;;;;;;;;;;;;;;;;;5035231;28;19932;-55
2023/11/15 04:16:32;;;;;;;;;;;;;;;;;;5035219;28;20452;-56
2023/11/15 04:18:58;;;;;;;;;;;;;;;;;;5035122;28;20007;-56
2023/11/15 04:21:25;;;;;;;;;;;;;;;;;;5035493;28;19921;-54
2023/11/15 04:23:53;;;;;;;;;;;;;;;;;;5035463;28;19968;-56
2023/11/15 04:26:20;;;;;;;;;;;;;;;;;;5034427;28;20028;-52
2023/11/15 04:28:46;;;;;;;;;;;;;;;;;;5034540;28;19920;-55
2023/11/15 04:31:13;;;;;;;;;;;;;;;;;;5034825;28;19921;-56
2023/11/15 04:33:39;;;;;;;;;;;;;;;;;;5034773;28;19927;-56
2023/11/15 04:36:07;;;;;;;;;;;;;;;;;;5034868;28;19960;-56
2023/11/15 04:38:34;;;;;;;;;;;;;;;;;;5034739;28;19954;-57
2023/11/15 04:41:02;;;;;;;;;;;;;;;;;;5034340;28;20008;-57
2023/11/15 04:43:29;;;;;;;;;;;;;;;;;;5034563;28;19944;-56
2023/11/15 04:45:55;;;;;;;;;;;;;;;;;;5034640;28;20250;-55
2023/11/15 04:48:22;;;;;;;;;;;;;;;;;;5032493;28;20011;-56
2023/11/15 04:50:49;;;;;;;;;;;;;;;;;;5035110;28;19921;-56
2023/11/15 04:53:15;;;;;;;;;;;;;;;;;;5034360;28;20027;-55
2023/11/15 04:55:41;;;;;;;;;;;;;;;;;;5030515;28;19921;-54
2023/11/15 04:58:09;;;;;;;;;;;;;;;;;;5033146;28;20012;-56
2023/11/15 05:00:36;;;;;;;;;;;;;;;;;;5034594;28;20309;-55
2023/11/15 05:03:03;;;;;;;;;;;;;;;;;;5034656;28;20288;-53
2023/11/15 05:05:29;;;;;;;;;;;;;;;;;;5033922;28;20339;-57
2023/11/15 05:07:56;;;;;;;;;;;;;;;;;;5034142;28;19927;-53
2023/11/15 05:10:22;;;;;;;;;;;;;;;;;;5034019;28;19936;-53
2023/11/15 05:12:49;;;;;;;;;;;;;;;;;;5033866;28;19998;-56
2023/11/15 05:15:17;;;;;;;;;;;;;;;;;;5033809;28;19974;-55
2023/11/15 05:17:44;;;;;;;;;;;;;;;;;;5026403;28;20352;-55
2023/11/15 05:20:11;;;;;;;;;;;;;;;;;;5033949;28;19921;-56
2023/11/15 05:22:37;;;;;;;;;;;;;;;;;;5032970;28;19921;-54
2023/11/15 05:25:04;;;;;;;;;;;;;;;;;;5033696;28;19921;-55
2023/11/15 05:27:30;;;;;;;;;;;;;;;;;;5033404;28;20390;-55
2023/11/15 05:29:57;;;;;;;;;;;;;;;;;;5033787;28;19927;-56
2023/11/15 05:32:25;;;;;;;;;;;;;;;;;;5034032;28;20011;-53
2023/11/15 05:34:51;;;;;;;;;;;;;;;;;;5033782;28;19932;-53
2023/11/15 05:37:18;;;;;;;;;;;;;;;;;;5033410;28;19921;-56
2023/11/15 05:39:44;;;;;;;;;;;;;;;;;;5033841;28;19925;-55
2023/11/15 05:42:10;;;;;;;;;;;;;;;;;;5033434;28;19932;-55
2023/11/15 05:44:37;;;;;;;;;;;;;;;;;;5033826;28;19921;-56
2023/11/15 05:47:04;;;;;;;;;;;;;;;;;;5032909;28;19921;-53
2023/11/15 05:49:32;;;;;;;;;;;;;;;;;;5033646;28;20015;-53
2023/11/15 05:51:59;;;;;;;;;;;;;;;;;;5033832;28;20019;-55
2023/11/15 05:54:27;;;;;;;;;;;;;;;;;;5033037;28;19964;-52
2023/11/15 05:56:55;;;;;;;;;;;;;;;;;;5032774;28;20373;-52
2023/11/15 05:59:21;;;;;;;;;;;;;;;;;;5033510;28;20226;-57
2023/11/15 06:01:50;;;;;;;;;;;;;;;;;;5033897;28;20380;-57
2023/11/15 06:04:17;;;;;;;;;;;;;;;;;;5033705;28;20399;-56
2023/11/15 06:06:44;;;;;;;;;;;;;;;;;;5033170;28;19921;-55
2023/11/15 06:09:13;;;;;;;;;;;;;;;;;;5033492;28;20353;-59
2023/11/15 06:11:42;;;;;;;;;;;;;;;;;;5033712;28;19927;-55
2023/11/15 06:14:08;;;;;;;;;;;;;;;;;;5034225;28;19964;-55
2023/11/15 06:16:36;;;;;;;;;;;;;;;;;;5033096;28;19921;-53
2023/11/15 06:19:02;;;;;;;;;;;;;;;;;;5033389;28;19921;-52
2023/11/15 06:21:29;;;;;;;;;;;;;;;;;;5033762;28;20305;-54
2023/11/15 06:23:57;;;;;;;;;;;;;;;;;;5033440;28;19993;-57
2023/11/15 06:26:23;;;;;;;;;;;;;;;;;;5033437;28;20364;-56
2023/11/15 06:28:50;;;;;;;;;;;;;;;;;;5032966;28;19920;-53
2023/11/15 06:31:17;;;;;;;;;;;;;;;;;;5033138;28;19928;-56
2023/11/15 06:33:44;;;;;;;;;;;;;;;;;;5032591;28;20336;-56
2023/11/15 06:36:10;;;;;;;;;;;;;;;;;;5032812;28;19921;-53
2023/11/15 06:38:37;;;;;;;;;;;;;;;;;;5032817;28;19983;-52
2023/11/15 06:41:07;;;;;;;;;;;;;;;;;;5032888;28;19920;-52
2023/11/15 06:43:33;;;;;;;;;;;;;;;;;;5033143;28;19999;-55
2023/11/15 06:46:00;;;;;;;;;;;;;;;;;;5032614;28;19939;-53
2023/11/15 06:48:26;;;;;;;;;;;;;;;;;;5033330;28;19928;-56
2023/11/15 06:50:53;;;;;;;;;;;;;;;;;;5033317;28;19927;-55
2023/11/15 06:53:19;;;;;;;;;;;;;;;;;;5033354;28;20089;-53
2023/11/15 06:55:46;;;;;;;;;;;;;;;;;;5032104;28;19921;-56
2023/11/15 06:58:15;;;;;;;;;;;;;;;;;;5032115;28;19921;-55
2023/11/15 07:00:43;;;;;;;;;;;;;;;;;;5032546;28;19920;-53
2023/11/15 07:03:12;;;;;;;;;;;;;;;;;;5032404;28;20014;-56
2023/11/15 07:05:40;;;;;;;;;;;;;;;;;;5031956;28;20448;-53
2023/11/15 07:08:11;;;;;;;;;;;;;;;;;;5032482;28;20407;-57
2023/11/15 07:10:37;;;;;;;;;;;;;;;;;;5028509;28;19928;-54
2023/11/15 07:13:06;;;;;;;;;;;;;;;;;;5028937;28;19990;-55
2023/11/15 07:15:34;;;;;;;;;;;;;;;;;;5030484;28;19925;-55
2023/11/15 07:18:00;;;;;;;;;;;;;;;;;;5027965;28;19925;-55
2023/11/15 07:20:27;;;;;;;;;;;;;;;;;;5028775;28;19928;-54
2023/11/15 07:22:53;;;;;;;;;;;;;;;;;;5029209;28;19921;-56
2023/11/15 07:25:19;;;;;;;;;;;;;;;;;;5032088;28;20386;-58
2023/11/15 07:27:46;;;;;;;;;;;;;;;;;;5031684;28;19927;-57
2023/11/15 07:30:14;;;;;;;;;;;;;;;;;;5030174;28;19925;-52
2023/11/15 07:32:42;;;;;;;;;;;;;;;;;;5021947;28;19921;-55
2023/11/15 07:35:09;;;;;;;;;;;;;;;;;;5028135;28;19921;-53
2023/11/15 07:37:36;;;;;;;;;;;;;;;;;;5031223;28;20280;-56
2023/11/15 07:40:04;;;;;;;;;;;;;;;;;;5032483;28;19983;-54
2023/11/15 07:42:32;;;;;;;;;;;;;;;;;;5032221;28;19928;-60
2023/11/15 07:45:01;;;;;;;;;;;;;;;;;;5032252;28;19972;-58
2023/11/15 07:47:29;;;;;;;;;;;;;;;;;;5031835;28;19975;-53
2023/11/15 07:49:58;;;;;;;;;;;;;;;;;;5032611;28;19928;-58
2023/11/15 07:52:26;;;;;;;;;;;;;;;;;;5032129;28;19921;-56
2023/11/15 07:54:52;;;;;;;;;;;;;;;;;;5025277;28;20344;-57
2023/11/15 07:57:21;;;;;;;;;;;;;;;;;;5030881;28;19925;-55
2023/11/15 07:59:47;;;;;;;;;;;;;;;;;;5029347;28;19924;-56
2023/11/15 08:02:13;;;;;;;;;;;;;;;;;;5031809;28;20013;-54
2023/11/15 08:04:40;;;;;;;;;;;;;;;;;;5031810;28;20509;-55
2023/11/15 08:07:07;;;;;;;;;;;;;;;;;;5030951;28;19928;-55
2023/11/15 08:09:34;;;;;;;;;;;;;;;;;;5031707;28;19957;-57
2023/11/15 08:12:01;;;;;;;;;;;;;;;;;;5031323;28;19996;-55
2023/11/15 08:14:29;;;;;;;;;;;;;;;;;;5031610;28;19972;-57
2023/11/15 08:16:55;;;;;;;;;;;;;;;;;;5031948;28;20367;-55
2023/11/15 08:19:22;;;;;;;;;;;;;;;;;;5026102;28;19925;-53
2023/11/15 08:21:49;;;;;;;;;;;;;;;;;;5029177;28;19965;-56
2023/11/15 08:24:21;;;;;;;;;;;;;;;;;;5027495;28;19921;-56
2023/11/15 08:26:47;;;;;;;;;;;;;;;;;;5024945;28;19992;-60
2023/11/15 08:29:13;;;;;;;;;;;;;;;;;;5025421;28;20064;-65
2023/11/15 08:31:42;;;;;;;;;;;;;;;;;;5024993;28;20328;-61
2023/11/15 08:34:08;;;;;;;;;;;;;;;;;;5018597;28;19933;-59
2023/11/15 08:36:35;;;;;;;;;;;;;;;;;;5022901;28;19921;-56
2023/11/15 08:39:01;;;;;;;;;;;;;;;;;;5023203;28;19921;-53
2023/11/15 08:41:29;;;;;;;;;;;;;;;;;;5027852;28;20423;-53
2023/11/15 08:43:55;;;;;;;;;;;;;;;;;;5025054;28;19921;-62
2023/11/15 08:46:26;;;;;;;;;;;;;;;;;;5023382;28;20020;-65
2023/11/15 08:48:53;;;;;;;;;;;;;;;;;;5028774;28;19939;-58
2023/11/15 08:51:20;;;;;;;;;;;;;;;;;;5027885;28;19921;-59
2023/11/15 08:53:47;;;;;;;;;;;;;;;;;;5023757;28;20020;-56
2023/11/15 08:56:14;;;;;;;;;;;;;;;;;;5029657;28;19940;-54
2023/11/15 08:58:42;;;;;;;;;;;;;;;;;;5020603;28;19921;-54
2023/11/15 09:01:10;;;;;;;;;;;;;;;;;;5030866;28;19928;-52
2023/11/15 09:03:38;;;;;;;;;;;;;;;;;;5032190;28;19925;-55
2023/11/15 09:06:05;;;;;;;;;;;;;;;;;;5032416;28;20293;-56
2023/11/15 09:08:32;;;;;;;;;;;;;;;;;;5030899;28;20304;-57
2023/11/15 09:10:58;;;;;;;;;;;;;;;;;;5032100;28;19928;-57
2023/11/15 09:13:25;;;;;;;;;;;;;;;;;;5031776;28;20032;-57
2023/11/15 09:15:53;;;;;;;;;;;;;;;;;;5028052;28;19921;-56
2023/11/15 09:18:21;;;;;;;;;;;;;;;;;;5022964;28;19929;-55
2023/11/15 09:20:49;;;;;;;;;;;;;;;;;;5027708;28;20004;-54
2023/11/15 09:23:16;;;;;;;;;;;;;;;;;;5030110;28;19924;-55
2023/11/15 09:25:42;;;;;;;;;;;;;;;;;;5022486;28;20434;-55
2023/11/15 09:28:10;;;;;;;;;;;;;;;;;;5027280;28;19921;-57
2023/11/15 09:30:37;;;;;;;;;;;;;;;;;;5027570;28;20536;-56
2023/11/15 09:33:05;;;;;;;;;;;;;;;;;;5031778;28;19928;-54
2023/11/15 09:35:35;;;;;;;;;;;;;;;;;;5027798;28;19952;-56
2023/11/15 09:38:01;;;;;;;;;;;;;;;;;;5026592;28;20008;-57
2023/11/15 09:40:28;;;;;;;;;;;;;;;;;;5020773;28;19922;-57
2023/11/15 09:42:55;;;;;;;;;;;;;;;;;;5025888;28;20380;-57
2023/11/15 09:45:23;;;;;;;;;;;;;;;;;;5018198;28;19925;-56
2023/11/15 09:47:50;;;;;;;;;;;;;;;;;;5026431;28;19925;-54
2023/11/15 09:50:21;;;;;;;;;;;;;;;;;;5024683;28;19921;-50
2023/11/15 09:52:49;;;;;;;;;;;;;;;;;;5020487;28;19922;-55
2023/11/15 09:55:16;;;;;;;;;;;;;;;;;;5030854;28;19967;-56
2023/11/15 09:57:43;;;;;;;;;;;;;;;;;;5024954;28;19925;-56
2023/11/15 10:00:11;;;;;;;;;;;;;;;;;;5019935;28;19928;-56
2023/11/15 10:02:38;;;;;;;;;;;;;;;;;;5030583;28;19929;-56
2023/11/15 10:05:20;;;;;;;;;;;;;;;;;;5020322;28;20328;-57
2023/11/15 10:07:48;;;;;;;;;;;;;;;;;;5030569;28;20423;-56
2023/11/15 10:10:18;;;;;;;;;;;;;;;;;;5021345;28;20012;-54
2023/11/15 10:12:45;;;;;;;;;;;;;;;;;;5021888;28;20007;-55
2023/11/15 10:15:13;;;;;;;;;;;;;;;;;;5023719;28;20376;-57
2023/11/15 10:17:40;;;;;;;;;;;;;;;;;;5028078;28;19928;-56
2023/11/15 10:20:16;;;;;;;;;;;;;;;;;;5030846;28;19964;-59
2023/11/15 10:22:46;;;;;;;;;;;;;;;;;;5025140;28;19925;-57
2023/11/15 10:25:14;;;;;;;;;;;;;;;;;;5029189;28;19964;-54
2023/11/15 10:27:42;;;;;;;;;;;;;;;;;;5026539;28;20385;-56
2023/11/15 10:30:12;;;;;;;;;;;;;;;;;;5024367;28;20012;-57
2023/11/15 10:32:38;;;;;;;;;;;;;;;;;;5028454;28;20306;-57
2023/11/15 10:35:06;;;;;;;;;;;;;;;;;;5024321;28;19936;-57
2023/11/15 10:37:33;;;;;;;;;;;;;;;;;;5028188;28;19950;-55
2023/11/15 10:39:59;;;;;;;;;;;;;;;;;;5024037;28;19925;-57
2023/11/15 10:42:28;;;;;;;;;;;;;;;;;;5021353;28;20350;-55
2023/11/15 10:44:58;;;;;;;;;;;;;;;;;;5024296;28;19925;-57
2023/11/15 10:47:26;;;;;;;;;;;;;;;;;;5018588;28;19944;-57
2023/11/15 10:49:54;;;;;;;;;;;;;;;;;;5027767;28;19920;-57
2023/11/15 10:52:21;;;;;;;;;;;;;;;;;;5029655;28;20540;-57
2023/11/15 10:54:49;;;;;;;;;;;;;;;;;;5030336;28;19944;-55
2023/11/15 10:57:17;;;;;;;;;;;;;;;;;;5022483;28;19927;-56
2023/11/15 10:59:48;;;;;;;;;;;;;;;;;;5028082;28;20601;-56
2023/11/15 11:02:16;;;;;;;;;;;;;;;;;;5022099;28;19978;-57
2023/11/15 11:04:44;;;;;;;;;;;;;;;;;;5020796;28;19983;-55
2023/11/15 11:07:15;;;;;;;;;;;;;;;;;;5017691;28;19928;-58
2023/11/15 11:09:46;;;;;;;;;;;;;;;;;;5021512;28;20554;-57
2023/11/15 11:12:13;;;;;;;;;;;;;;;;;;5023732;28;19928;-53
2023/11/15 11:14:40;;;;;;;;;;;;;;;;;;5028066;28;19956;-56
2023/11/15 11:17:21;;;;;;;;;;;;;;;;;;5025634;28;19921;-56
2023/11/15 11:19:50;;;;;;;;;;;;;;;;;;5025478;28;20008;-56
2023/11/15 11:22:17;;;;;;;;;;;;;;;;;;5023245;28;19951;-56
2023/11/15 11:25:10;;;;;;;;;;;;;;;;;;5020109;28;19928;-56
2023/11/15 11:27:37;;;;;;;;;;;;;;;;;;5026029;28;20004;-56
2023/11/15 11:30:12;;;;;;;;;;;;;;;;;;5029794;28;19921;-54
2023/11/15 11:32:39;;;;;;;;;;;;;;;;;;5029281;28;19933;-56
2023/11/15 11:35:34;;;;;;;;;;;;;;;;;;5024333;28;19928;-57
2023/11/15 11:38:01;;;;;;;;;;;;;;;;;;5028242;28;19921;-56
2023/11/15 11:40:31;;;;;;;;;;;;;;;;;;5029329;28;19921;-57
2023/11/15 11:43:11;;;;;;;;;;;;;;;;;;5024873;28;19921;-57
2023/11/15 11:45:40;;;;;;;;;;;;;;;;;;5022675;28;20619;-61
2023/11/15 11:48:15;;;;;;;;;;;;;;;;;;5021505;28;19947;-55
2023/11/15 11:50:51;;;;;;;;;;;;;;;;;;5017494;28;19928;-59
2023/11/15 11:53:18;;;;;;;;;;;;;;;;;;5022564;28;19921;-59
2023/11/15 11:55:44;;;;;;;;;;;;;;;;;;5024201;28;19986;-57
2023/11/15 11:58:11;;;;;;;;;;;;;;;;;;5026149;28;19927;-52
2023/11/15 12:00:37;;;;;;;;;;;;;;;;;;5029185;28;20357;-55
2023/11/15 12:03:03;;;;;;;;;;;;;;;;;;5029432;28;20025;-56
2023/11/15 12:05:31;;;;;;;;;;;;;;;;;;5029243;28;19929;-57
2023/11/15 12:08:00;;;;;;;;;;;;;;;;;;5029175;28;19921;-55
2023/11/15 12:10:26;;;;;;;;;;;;;;;;;;5029350;28;19964;-57
2023/11/15 12:12:54;;;;;;;;;;;;;;;;;;5025414;28;20019;-56
2023/11/15 12:15:22;;;;;;;;;;;;;;;;;;5026816;28;20020;-55
2023/11/15 12:17:50;;;;;;;;;;;;;;;;;;5026033;28;19929;-54
2023/11/15 12:20:26;;;;;;;;;;;;;;;;;;5026255;28;19921;-56
2023/11/15 12:23:03;;;;;;;;;;;;;;;;;;5022067;28;20353;-55
2023/11/15 12:25:31;;;;;;;;;;;;;;;;;;5023896;28;19921;-55
2023/11/15 12:28:00;;;;;;;;;;;;;;;;;;5027338;28;20521;-53
2023/11/15 12:30:27;;;;;;;;;;;;;;;;;;5028906;28;19924;-56
2023/11/15 12:32:54;;;;;;;;;;;;;;;;;;5029843;28;20021;-56
2023/11/15 12:35:21;;;;;;;;;;;;;;;;;;5027835;28;20015;-53
2023/11/15 12:37:48;;;;;;;;;;;;;;;;;;5021483;28;19931;-55
2023/11/15 12:40:19;;;;;;;;;;;;;;;;;;5024540;28;20018;-55
2023/11/15 12:42:47;;;;;;;;;;;;;;;;;;5024302;28;19924;-56
2023/11/15 12:45:28;;;;;;;;;;;;;;;;;;5025033;28;19944;-56
2023/11/15 12:47:59;;;;;;;;;;;;;;;;;;5032032;28;19921;-56
2023/11/15 12:50:27;;;;;;;;;;;;;;;;;;5023050;28;19952;-54
2023/11/15 12:52:53;;;;;;;;;;;;;;;;;;5023307;28;19929;-55
2023/11/15 12:55:34;;;;;;;;;;;;;;;;;;5023598;28;19927;-54
2023/11/15 12:58:02;;;;;;;;;;;;;;;;;;5020488;28;19929;-55
2023/11/15 13:00:28;;;;;;;;;;;;;;;;;;5028238;28;19927;-56
2023/11/15 13:02:55;;;;;;;;;;;;;;;;;;5027198;28;19921;-52
2023/11/15 13:05:24;;;;;;;;;;;;;;;;;;5027005;28;19925;-50
2023/11/15 13:07:50;;;;;;;;;;;;;;;;;;5031765;28;19921;-53
2023/11/15 13:10:17;;;;;;;;;;;;;;;;;;5032733;28;20025;-55
2023/11/15 13:12:44;;;;;;;;;;;;;;;;;;5030475;28;19921;-56
2023/11/15 13:15:17;;;;;;;;;;;;;;;;;;5032664;28;19921;-55
2023/11/15 13:17:44;;;;;;;;;;;;;;;;;;5022576;28;19925;-55
2023/11/15 13:20:11;;;;;;;;;;;;;;;;;;5018528;28;19932;-58
2023/11/15 13:22:38;;;;;;;;;;;;;;;;;;5030203;28;20603;-57
2023/11/15 13:25:08;;;;;;;;;;;;;;;;;;5032541;28;20448;-56
2023/11/15 13:27:35;;;;;;;;;;;;;;;;;;5031742;28;19928;-53
2023/11/15 13:30:01;;;;;;;;;;;;;;;;;;5031118;28;19920;-55
2023/11/15 13:32:32;;;;;;;;;;;;;;;;;;5028648;28;19931;-54
2023/11/15 13:35:02;;;;;;;;;;;;;;;;;;5031248;28;19921;-54
2023/11/15 13:37:28;;;;;;;;;;;;;;;;;;5032010;28;19921;-56
2023/11/15 13:39:55;;;;;;;;;;;;;;;;;;5032487;28;19921;-54
2023/11/15 13:42:22;;;;;;;;;;;;;;;;;;5030660;28;19921;-54
2023/11/15 13:44:48;;;;;;;;;;;;;;;;;;5029164;28;19971;-56
2023/11/15 13:47:15;;;;;;;;;;;;;;;;;;5027011;28;19927;-55
2023/11/15 13:49:46;;;;;;;;;;;;;;;;;;5024340;28;19943;-54
2023/11/15 13:52:13;;;;;;;;;;;;;;;;;;5027717;28;19925;-56
2023/11/15 13:54:39;;;;;;;;;;;;;;;;;;5021073;28;19939;-56
2023/11/15 13:57:07;;;;;;;;;;;;;;;;;;5021567;28;20478;-56
2023/11/15 13:59:34;;;;;;;;;;;;;;;;;;5023786;28;20000;-55
2023/11/15 14:02:00;;;;;;;;;;;;;;;;;;5028871;28;20337;-54
2023/11/15 14:04:27;;;;;;;;;;;;;;;;;;5027272;28;20347;-57
2023/11/15 14:06:55;;;;;;;;;;;;;;;;;;5028156;28;19999;-55
2023/11/15 14:09:21;;;;;;;;;;;;;;;;;;5028802;28;19998;-53
2023/11/15 14:11:51;;;;;;;;;;;;;;;;;;5026372;28;19925;-53
2023/11/15 14:14:18;;;;;;;;;;;;;;;;;;5024757;28;19964;-56
2023/11/15 14:16:47;;;;;;;;;;;;;;;;;;5024765;28;19928;-55
2023/11/15 14:19:15;;;;;;;;;;;;;;;;;;5020160;28;19922;-55
2023/11/15 14:21:42;;;;;;;;;;;;;;;;;;5026216;28;20292;-54
2023/11/15 14:24:10;;;;;;;;;;;;;;;;;;5027965;28;20479;-56
2023/11/15 14:26:37;;;;;;;;;;;;;;;;;;5026757;28;19979;-56
2023/11/15 14:29:07;;;;;;;;;;;;;;;;;;5030556;28;20023;-52
2023/11/15 14:31:37;;;;;;;;;;;;;;;;;;5024890;28;19944;-55
2023/11/15 14:34:03;;;;;;;;;;;;;;;;;;5025130;28;19926;-56
2023/11/15 14:36:29;;;;;;;;;;;;;;;;;;5028122;28;19927;-55
2023/11/15 14:38:57;;;;;;;;;;;;;;;;;;5024711;28;20366;-54
2023/11/15 14:41:24;;;;;;;;;;;;;;;;;;5030238;28;19925;-56
2023/11/15 14:43:51;;;;;;;;;;;;;;;;;;5030471;28;19921;-57
2023/11/15 14:46:17;;;;;;;;;;;;;;;;;;5030525;28;19925;-52
2023/11/15 14:48:44;;;;;;;;;;;;;;;;;;5030602;28;19927;-57
2023/11/15 14:51:11;;;;;;;;;;;;;;;;;;5028841;28;20366;-57
2023/11/15 14:53:51;;;;;;;;;;;;;;;;;;5030195;28;19925;-56
2023/11/15 14:56:18;;;;;;;;;;;;;;;;;;5024744;28;20353;-54
2023/11/15 14:58:46;;;;;;;;;;;;;;;;;;5022244;28;19921;-54
2023/11/15 15:01:13;;;;;;;;;;;;;;;;;;5021153;28;20404;-57
2023/11/15 15:03:41;;;;;;;;;;;;;;;;;;5024779;28;21201;-54
2023/11/15 15:06:08;;;;;;;;;;;;;;;;;;5028639;28;19929;-57
2023/11/15 15:08:35;;;;;;;;;;;;;;;;;;5030160;28;20285;-54
2023/11/15 15:11:01;;;;;;;;;;;;;;;;;;5027968;28;20012;-55
2023/11/15 15:13:27;;;;;;;;;;;;;;;;;;5028824;28;19924;-56
2023/11/15 15:15:55;;;;;;;;;;;;;;;;;;5023991;28;19929;-56
2023/11/15 15:18:22;;;;;;;;;;;;;;;;;;5022500;28;19921;-56
2023/11/15 15:20:48;;;;;;;;;;;;;;;;;;5025243;28;20402;-55
2023/11/15 15:23:15;;;;;;;;;;;;;;;;;;5026939;28;20008;-55
2023/11/15 15:25:42;;;;;;;;;;;;;;;;;;5020298;28;19929;-54
2023/11/15 15:28:09;;;;;;;;;;;;;;;;;;5022490;28;19921;-55
2023/11/15 15:30:35;;;;;;;;;;;;;;;;;;5023212;28;19921;-55
2023/11/15 15:33:06;;;;;;;;;;;;;;;;;;5030183;28;19928;-55
2023/11/15 15:35:32;;;;;;;;;;;;;;;;;;5030112;28;19921;-54
2023/11/15 15:37:59;;;;;;;;;;;;;;;;;;5030192;28;20386;-57
2023/11/15 15:40:29;;;;;;;;;;;;;;;;;;5030280;28;20011;-54
2023/11/15 15:42:56;;;;;;;;;;;;;;;;;;5030362;28;19921;-54
2023/11/15 15:45:26;;;;;;;;;;;;;;;;;;5030027;28;19932;-56
2023/11/15 15:47:53;;;;;;;;;;;;;;;;;;5030369;28;19921;-54
2023/11/15 15:50:21;;;;;;;;;;;;;;;;;;5030396;28;19921;-57
2023/11/15 15:52:47;;;;;;;;;;;;;;;;;;5030174;28;19921;-56
2023/11/15 15:55:14;;;;;;;;;;;;;;;;;;5030282;28;19921;-56
2023/11/15 15:57:40;;;;;;;;;;;;;;;;;;5029745;28;19921;-55
2023/11/15 16:00:07;;;;;;;;;;;;;;;;;;5030258;28;19921;-56
2023/11/15 16:02:35;;;;;;;;;;;;;;;;;;5030013;28;19921;-55
2023/11/15 16:05:02;;;;;;;;;;;;;;;;;;5030663;28;19921;-56
2023/11/15 16:07:30;;;;;;;;;;;;;;;;;;5033916;28;19967;-57
2023/11/15 16:10:00;;;;;;;;;;;;;;;;;;5034169;28;20454;-56
2023/11/15 16:12:26;;;;;;;;;;;;;;;;;;5033845;28;20364;-55
2023/11/15 16:14:55;;;;;;;;;;;;;;;;;;5033893;28;19931;-55
2023/11/15 16:17:21;;;;;;;;;;;;;;;;;;5033837;28;20381;-54
2023/11/15 16:19:48;;;;;;;;;;;;;;;;;;5033999;28;20573;-57
2023/11/15 16:22:14;;;;;;;;;;;;;;;;;;5033962;28;20361;-54
2023/11/15 16:24:43;;;;;;;;;;;;;;;;;;5033609;28;20384;-56
2023/11/15 16:27:09;;;;;;;;;;;;;;;;;;5033533;28;19921;-56
2023/11/15 16:29:36;;;;;;;;;;;;;;;;;;5033523;28;19927;-57
2023/11/15 16:32:02;;;;;;;;;;;;;;;;;;5033778;28;19921;-54
2023/11/15 16:34:29;;;;;;;;;;;;;;;;;;5033187;28;19928;-54
2023/11/15 16:36:55;;;;;;;;;;;;;;;;;;5033365;28;20639;-57
2023/11/15 16:39:24;;;;;;;;;;;;;;;;;;5033608;28;19921;-57
2023/11/15 16:41:54;;;;;;;;;;;;;;;;;;5033486;28;20012;-56
2023/11/15 16:44:21;;;;;;;;;;;;;;;;;;5033533;28;20599;-57
2023/11/15 16:46:48;;;;;;;;;;;;;;;;;;5033509;28;19920;-53
2023/11/15 16:49:15;;;;;;;;;;;;;;;;;;5033281;28;19925;-53